Time;durP1;ratioP1;P1;durP2;ratioP2;P2;SDS_P1;SDS_P2;PMS_P1;PMS_P2;Temp;Humidity;BMP_temperature;BMP_pressure;BME280_temperature;BME280_humidity;BME280_pressure;Samples;Min_cycle;Max_cycle;Signal;HPM_P1;HPM_P2
2022/07/13 00:04:18;;;;;;;3.83;1.23;;;24.40;59.40;;;;;;10134471;28;20024;-64
2022/07/13 00:09:09;;;;;;;2.42;1.10;;;24.10;60.30;;;;;;10116430;28;20039;-65
2022/07/13 00:14:00;;;;;;;1.27;1.00;;;24.30;60.20;;;;;;10133566;28;20048;-65
2022/07/13 00:18:50;;;;;;;1.27;1.05;;;24.60;60.00;;;;;;10133816;28;20538;-65
2022/07/13 00:23:41;;;;;;;2.55;1.30;;;24.50;60.30;;;;;;10133283;28;20179;-65
2022/07/13 00:28:32;;;;;;;1.38;1.20;;;24.60;60.10;;;;;;10132426;28;20021;-64
2022/07/13 00:33:23;;;;;;;4.63;1.10;;;24.80;60.10;;;;;;10132663;28;20415;-64
2022/07/13 00:38:13;;;;;;;1.30;0.95;;;24.60;60.50;;;;;;10131998;28;20051;-66
2022/07/13 00:43:04;;;;;;;1.90;1.40;;;24.40;60.60;;;;;;10132048;28;20032;-66
2022/07/13 00:47:56;;;;;;;2.78;1.10;;;24.30;61.00;;;;;;10131994;28;20036;-65
2022/07/13 00:52:47;;;;;;;1.52;0.90;;;24.40;61.00;;;;;;10132372;28;20414;-65
2022/07/13 00:57:38;;;;;;;6.90;2.08;;;24.40;61.00;;;;;;10132175;28;20118;-66
2022/07/13 01:02:29;;;;;;;1.27;0.90;;;24.30;61.20;;;;;;10132049;28;20087;-65
2022/07/13 01:07:20;;;;;;;1.33;1.00;;;24.10;61.30;;;;;;10131068;28;20137;-65
2022/07/13 01:12:10;;;;;;;4.10;1.55;;;24.10;61.60;;;;;;10131657;28;20070;-65
2022/07/13 01:17:01;;;;;;;3.92;1.05;;;24.20;61.50;;;;;;10131381;28;20047;-65
2022/07/13 01:21:58;;;;;;;2.33;0.98;;;24.00;61.70;;;;;;10129204;28;20454;-65
2022/07/13 01:26:49;;;;;;;1.58;0.90;;;24.10;61.70;;;;;;10141349;28;20044;-65
2022/07/13 01:31:40;;;;;;;1.20;1.10;;;24.00;61.90;;;;;;10133313;28;20059;-65
2022/07/13 01:36:33;;;;;;;1.52;1.00;;;23.90;62.00;;;;;;10130967;28;20048;-64
2022/07/13 01:41:25;;;;;;;1.42;0.90;;;23.90;62.00;;;;;;10130747;28;20056;-65
2022/07/13 01:46:17;;;;;;;2.28;0.90;;;23.80;62.10;;;;;;10112632;28;20029;-65
2022/07/13 01:51:07;;;;;;;2.55;0.95;;;23.70;62.30;;;;;;10130962;28;20591;-64
2022/07/13 01:55:58;;;;;;;1.45;1.08;;;23.60;62.50;;;;;;10130343;28;20189;-65
2022/07/13 02:00:48;;;;;;;3.88;1.02;;;23.60;62.70;;;;;;10131608;28;20428;-64
2022/07/13 02:05:39;;;;;;;1.65;1.00;;;23.60;62.40;;;;;;10130903;28;20514;-64
2022/07/13 02:10:36;;;;;;;1.75;0.80;;;23.50;62.30;;;;;;10131048;28;20028;-65
2022/07/13 02:15:26;;;;;;;1.30;1.15;;;23.70;62.60;;;;;;10129780;28;20398;-67
2022/07/13 02:20:17;;;;;;;1.15;0.75;;;23.60;62.70;;;;;;10130191;28;20020;-64
2022/07/13 02:25:09;;;;;;;1.95;0.95;;;23.70;62.70;;;;;;10106406;28;20032;-64
2022/07/13 02:30:00;;;;;;;1.73;1.30;;;23.70;62.70;;;;;;10130970;28;20040;-64
2022/07/13 02:34:51;;;;;;;1.20;0.88;;;23.70;62.60;;;;;;10130705;28;20451;-65
2022/07/13 02:39:41;;;;;;;1.27;0.90;;;23.50;62.80;;;;;;10130848;28;20120;-64
2022/07/13 02:44:32;;;;;;;1.40;0.95;;;23.40;62.90;;;;;;10136275;28;20398;-65
2022/07/13 02:49:22;;;;;;;1.48;0.82;;;23.30;62.90;;;;;;10136939;28;20021;-65
2022/07/13 02:54:13;;;;;;;3.22;1.00;;;23.40;63.10;;;;;;10142123;28;20306;-64
2022/07/13 02:59:04;;;;;;;1.50;0.93;;;23.40;62.90;;;;;;10140145;28;20394;-64
2022/07/13 03:03:54;;;;;;;1.33;1.20;;;23.30;63.10;;;;;;10133766;28;20148;-64
2022/07/13 03:08:45;;;;;;;2.20;0.77;;;23.20;63.30;;;;;;10124867;28;20032;-66
2022/07/13 03:13:36;;;;;;;1.88;0.85;;;23.10;63.60;;;;;;10135148;28;20033;-64
2022/07/13 03:18:26;;;;;;;1.23;1.00;;;23.10;63.60;;;;;;10135374;28;20388;-64
2022/07/13 03:23:17;;;;;;;1.77;1.60;;;23.20;63.60;;;;;;10135726;28;20039;-65
2022/07/13 03:28:08;;;;;;;1.00;0.90;;;23.10;64.10;;;;;;10134731;28;20128;-64
2022/07/13 03:32:59;;;;;;;1.50;0.82;;;23.10;63.70;;;;;;10135566;28;20136;-64
2022/07/13 03:37:49;;;;;;;1.38;0.88;;;22.90;63.80;;;;;;10136151;28;20051;-64
2022/07/13 03:42:40;;;;;;;1.40;1.05;;;22.90;64.00;;;;;;10110848;28;20159;-65
2022/07/13 03:47:30;;;;;;;2.55;0.98;;;22.90;64.10;;;;;;10134045;28;20024;-66
2022/07/13 03:52:21;;;;;;;2.17;1.10;;;22.80;64.20;;;;;;10116099;28;20029;-65
2022/07/13 03:57:12;;;;;;;2.15;1.50;;;22.80;64.40;;;;;;10135098;28;20036;-64
2022/07/13 04:02:03;;;;;;;2.58;1.10;;;22.80;64.60;;;;;;10134808;28;20119;-65
2022/07/13 04:06:54;;;;;;;1.60;1.00;;;22.90;64.60;;;;;;10134576;28;20566;-66
2022/07/13 04:11:44;;;;;;;2.53;1.75;;;22.90;65.00;;;;;;10137861;28;20027;-65
2022/07/13 04:16:35;;;;;;;1.95;1.50;;;22.80;65.20;;;;;;10133994;28;20052;-66
2022/07/13 04:21:26;;;;;;;2.53;1.27;;;22.80;65.70;;;;;;10139833;28;20028;-65
2022/07/13 04:26:17;;;;;;;6.35;1.92;;;22.60;66.10;;;;;;10139288;28;20032;-64
2022/07/13 04:31:08;;;;;;;2.38;1.58;;;22.60;66.30;;;;;;10132415;28;20044;-65
2022/07/13 04:35:59;;;;;;;4.57;1.33;;;22.60;66.40;;;;;;10132132;28;20070;-64
2022/07/13 04:40:49;;;;;;;6.90;1.88;;;22.60;66.60;;;;;;10126529;28;20393;-64
2022/07/13 04:45:40;;;;;;;2.10;1.23;;;22.50;66.80;;;;;;10132866;28;20029;-65
2022/07/13 04:50:31;;;;;;;5.15;1.30;;;22.40;66.90;;;;;;10132219;28;20406;-64
2022/07/13 04:55:21;;;;;;;3.92;1.95;;;22.40;67.10;;;;;;10127307;28;20410;-65
2022/07/13 05:00:12;;;;;;;2.40;1.25;;;22.50;67.00;;;;;;10131684;28;20020;-65
2022/07/13 05:05:03;;;;;;;3.95;2.00;;;22.50;67.10;;;;;;10132123;28;20726;-65
2022/07/13 05:09:54;;;;;;;2.42;1.15;;;22.50;67.00;;;;;;10131686;28;20028;-64
2022/07/13 05:14:45;;;;;;;5.32;1.75;;;22.70;66.90;;;;;;10132120;28;20109;-64
2022/07/13 05:19:36;;;;;;;6.32;2.20;;;22.50;67.00;;;;;;10131876;28;20109;-64
2022/07/13 05:24:26;;;;;;;3.03;2.00;;;22.50;67.50;;;;;;10132765;28;20032;-66
2022/07/13 05:29:17;;;;;;;3.88;1.45;;;22.50;67.30;;;;;;10130883;28;20036;-65
2022/07/13 05:34:08;;;;;;;2.55;1.60;;;22.40;67.20;;;;;;10131629;28;20044;-65
2022/07/13 05:38:58;;;;;;;4.25;1.80;;;22.50;67.30;;;;;;10131567;28;20020;-65
2022/07/13 05:43:49;;;;;;;2.25;1.90;;;22.60;67.20;;;;;;10132629;28;20017;-64
2022/07/13 05:48:40;;;;;;;6.13;3.38;;;22.70;67.20;;;;;;10135701;28;20024;-64
2022/07/13 05:53:31;;;;;;;3.53;2.20;;;22.90;66.90;;;;;;10135917;28;20121;-65
2022/07/13 05:58:21;;;;;;;3.78;1.55;;;23.00;66.90;;;;;;10131428;28;20436;-65
2022/07/13 06:03:12;;;;;;;5.05;1.60;;;23.20;66.90;;;;;;10131095;28;20065;-64
2022/07/13 06:08:03;;;;;;;4.53;2.30;;;23.20;66.90;;;;;;10131465;28;20032;-65
2022/07/13 06:12:53;;;;;;;7.55;3.50;;;23.30;66.80;;;;;;10135625;28;20115;-65
2022/07/13 06:17:44;;;;;;;6.53;3.10;;;23.40;66.90;;;;;;10137755;28;20119;-65
2022/07/13 06:22:35;;;;;;;7.55;2.10;;;23.50;67.00;;;;;;10138980;28;20116;-66
2022/07/13 06:27:25;;;;;;;4.22;2.47;;;23.70;67.00;;;;;;10135746;28;20304;-65
2022/07/13 06:32:17;;;;;;;5.22;2.08;;;23.90;67.10;;;;;;10139425;28;20503;-63
2022/07/13 06:37:08;;;;;;;4.85;1.88;;;24.10;67.00;;;;;;10136614;28;20024;-61
2022/07/13 06:41:58;;;;;;;5.93;2.25;;;24.30;67.20;;;;;;10134814;28;20033;-64
2022/07/13 06:46:49;;;;;;;6.05;3.33;;;24.50;67.20;;;;;;10135988;28;20352;-60
2022/07/13 06:51:40;;;;;;;4.50;2.30;;;24.60;67.20;;;;;;10135599;28;20556;-66
2022/07/13 06:56:31;;;;;;;4.47;1.90;;;24.90;67.00;;;;;;10134811;28;20108;-64
2022/07/13 07:01:21;;;;;;;2.72;1.88;;;25.10;66.90;;;;;;10133981;28;20032;-65
2022/07/13 07:06:12;;;;;;;2.90;1.67;;;25.40;66.90;;;;;;10135667;28;20024;-63
2022/07/13 07:11:03;;;;;;;5.13;1.40;;;25.60;67.00;;;;;;10135106;28;20027;-59
2022/07/13 07:15:53;;;;;;;2.17;1.25;;;25.80;66.70;;;;;;10136193;28;20105;-54
2022/07/13 07:20:44;;;;;;;3.08;1.35;;;25.90;66.30;;;;;;10135501;28;20044;-57
2022/07/13 07:25:35;;;;;;;2.05;1.30;;;26.00;65.90;;;;;;10134619;28;20036;-59
2022/07/13 07:30:26;;;;;;;3.80;1.40;;;26.00;65.80;;;;;;10131277;28;20055;-61
2022/07/13 07:35:17;;;;;;;2.92;1.25;;;26.20;65.40;;;;;;10134654;28;20112;-57
2022/07/13 07:40:08;;;;;;;2.20;1.45;;;26.10;64.90;;;;;;10134052;28;20021;-57
2022/07/13 07:44:59;;;;;;;2.92;1.40;;;26.00;64.70;;;;;;10133843;28;20024;-58
2022/07/13 07:49:49;;;;;;;1.92;1.40;;;26.00;64.30;;;;;;10132873;28;20422;-60
2022/07/13 07:54:40;;;;;;;2.20;1.10;;;26.00;63.90;;;;;;10129737;28;20028;-63
2022/07/13 07:59:31;;;;;;;1.80;1.42;;;26.00;63.80;;;;;;10129815;28;20028;-63
2022/07/13 08:04:21;;;;;;;2.65;1.27;;;26.00;64.50;;;;;;10132448;28;20029;-61
2022/07/13 08:09:12;;;;;;;2.88;1.52;;;26.10;63.50;;;;;;10133956;28;20020;-62
2022/07/13 08:14:02;;;;;;;1.45;1.10;;;26.10;63.40;;;;;;10132826;28;20044;-60
2022/07/13 08:18:53;;;;;;;2.33;1.13;;;26.30;63.20;;;;;;10132125;28;20024;-61
2022/07/13 08:23:53;;;;;;;1.92;1.13;;;26.40;62.80;;;;;;10131668;28;20028;-63
2022/07/13 08:28:44;;;;;;;1.60;0.65;;;26.50;62.50;;;;;;10129848;28;20107;-66
2022/07/13 08:38:44;;;;;;;1.10;0.90;;;26.60;61.90;;;;;;10132260;28;20036;-60
2022/07/13 08:43:34;;;;;;;1.05;0.70;;;26.70;61.60;;;;;;10130806;28;20039;-61
2022/07/13 08:48:31;;;;;;;4.47;1.10;;;26.80;61.20;;;;;;10140817;28;20037;-62
2022/07/13 08:53:22;;;;;;;0.85;0.80;;;26.90;60.60;;;;;;10126163;28;20540;-61
2022/07/13 08:58:15;;;;;;;3.10;1.85;;;27.00;60.30;;;;;;10131283;28;20051;-57
2022/07/13 09:03:05;;;;;;;0.95;0.60;;;27.00;59.90;;;;;;10132162;28;20123;-58
2022/07/13 09:08:05;;;;;;;1.20;0.82;;;27.10;59.40;;;;;;10131923;28;20107;-65
2022/07/13 09:12:56;;;;;;;1.02;0.65;;;27.10;58.70;;;;;;10131755;28;20605;-59
2022/07/13 09:17:47;;;;;;;0.70;0.52;;;27.10;58.60;;;;;;10132287;28;20055;-58
2022/07/13 09:22:53;;;;;;;2.45;0.65;;;27.20;58.20;;;;;;10113404;28;20078;-59
2022/07/13 09:27:47;;;;;;;1.90;0.80;;;27.30;57.70;;;;;;10111429;28;20024;-61
2022/07/13 09:32:41;;;;;;;3.40;0.77;;;27.40;57.30;;;;;;10131204;28;20118;-62
2022/07/13 09:37:34;;;;;;;3.93;1.10;;;27.70;56.80;;;;;;10129944;28;20123;-59
2022/07/13 09:42:29;;;;;;;2.25;0.70;;;27.70;56.30;;;;;;10130591;28;20237;-57
2022/07/13 09:47:21;;;;;;;1.08;0.82;;;27.80;55.90;;;;;;10136256;28;20501;-56
2022/07/13 09:52:17;;;;;;;7.30;1.33;;;27.90;55.70;;;;;;10139977;28;20541;-59
2022/07/13 09:57:13;;;;;;;2.55;1.38;;;28.10;55.50;;;;;;10140021;28;20292;-63
2022/07/13 10:02:05;;;;;;;3.95;1.15;;;27.90;55.50;;;;;;10140602;28;20032;-59
2022/07/13 10:06:55;;;;;;;2.35;0.90;;;28.40;55.30;;;;;;10133326;28;20806;-65
2022/07/13 10:11:46;;;;;;;1.98;0.90;;;28.50;54.90;;;;;;10137764;28;20033;-65
2022/07/13 10:16:38;;;;;;;1.30;1.10;;;28.50;54.50;;;;;;10138131;28;20040;-65
2022/07/13 10:21:47;;;;;;;1.30;0.60;;;28.50;54.30;;;;;;10139736;28;20024;-61
2022/07/13 10:26:38;;;;;;;3.60;0.80;;;28.70;53.30;;;;;;10133418;28;20032;-64
2022/07/13 10:31:30;;;;;;;0.65;0.60;;;28.80;53.20;;;;;;10136702;28;20453;-61
2022/07/13 10:36:51;;;;;;;1.85;0.73;;;28.80;52.60;;;;;;10125428;28;20086;-66
2022/07/13 10:42:14;;;;;;;1.95;1.00;;;28.90;51.80;;;;;;10122785;28;20115;-65
2022/07/13 10:47:07;;;;;;;1.10;0.82;;;29.20;51.40;;;;;;10112376;28;20078;-60
2022/07/13 10:57:13;;;;;;;2.28;0.73;;;29.50;50.40;;;;;;10135327;28;20052;-61
2022/07/13 11:02:05;;;;;;;2.80;0.83;;;29.50;50.40;;;;;;10136924;28;20024;-60
2022/07/13 11:07:06;;;;;;;0.50;0.47;;;29.70;50.00;;;;;;10132468;28;20036;-59
2022/07/13 11:11:57;;;;;;;1.40;0.80;;;30.20;49.10;;;;;;10136424;28;20016;-60
2022/07/13 11:16:50;;;;;;;1.88;1.00;;;30.70;48.60;;;;;;10136297;28;20562;-59
2022/07/13 11:22:03;;;;;;;1.27;0.63;;;31.00;48.00;;;;;;10137374;28;20027;-59
2022/07/13 11:27:00;;;;;;;1.17;1.08;;;30.90;46.90;;;;;;10130952;28;20533;-62
2022/07/13 11:32:00;;;;;;;0.82;0.47;;;30.50;47.20;;;;;;10108773;28;20568;-61
2022/07/13 11:36:53;;;;;;;1.23;0.45;;;30.40;46.40;;;;;;10135356;28;20063;-57
2022/07/13 11:41:44;;;;;;;2.30;0.60;;;30.40;46.00;;;;;;10136395;28;20308;-59
2022/07/13 11:46:36;;;;;;;0.75;0.75;;;30.20;45.40;;;;;;10136760;28;20455;-61
2022/07/13 11:51:27;;;;;;;1.95;0.77;;;30.20;45.00;;;;;;10128931;28;20878;-70
2022/07/13 11:56:17;;;;;;;2.08;0.55;;;30.10;44.30;;;;;;10139981;28;20418;-65
2022/07/13 12:01:13;;;;;;;1.60;0.50;;;30.30;43.70;;;;;;10137514;28;20036;-65
2022/07/13 12:06:07;;;;;;;0.75;0.40;;;30.60;42.10;;;;;;10136340;28;20044;-65
2022/07/13 12:10:57;;;;;;;1.38;0.47;;;31.00;40.90;;;;;;10134838;28;20103;-65
2022/07/13 12:15:48;;;;;;;0.70;0.45;;;31.30;40.00;;;;;;10135768;28;20193;-66
2022/07/13 12:20:39;;;;;;;1.83;0.60;;;32.10;39.40;;;;;;10133427;28;20520;-66
2022/07/13 12:25:35;;;;;;;0.77;0.55;;;33.00;39.00;;;;;;10129346;28;20016;-61
2022/07/13 12:30:26;;;;;;;0.60;0.55;;;33.70;38.60;;;;;;10133339;28;20052;-58
2022/07/13 12:35:27;;;;;;;2.78;0.73;;;34.00;38.40;;;;;;10208271;27;20388;-60
2022/07/13 12:40:37;;;;;;;1.63;0.75;;;34.00;38.20;;;;;;10194723;28;20080;-58
2022/07/13 12:45:31;;;;;;;1.60;1.10;;;34.20;37.80;;;;;;10192041;28;20081;-60
2022/07/13 12:50:29;;;;;;;2.55;0.70;;;34.80;38.10;;;;;;10192644;28;20027;-67
2022/07/13 12:55:23;;;;;;;0.98;0.88;;;35.00;38.20;;;;;;10201738;28;20104;-58
2022/07/13 13:00:15;;;;;;;1.63;0.70;;;34.90;38.80;;;;;;10200998;28;20066;-60
2022/07/13 13:05:08;;;;;;;1.67;0.60;;;35.00;38.70;;;;;;10197241;28;20045;-60
2022/07/13 13:09:59;;;;;;;1.08;0.70;;;35.00;38.50;;;;;;10204291;28;20031;-61
2022/07/13 13:14:49;;;;;;;0.68;0.50;;;35.30;38.00;;;;;;10205157;28;20078;-60
2022/07/13 13:19:40;;;;;;;1.23;0.85;;;35.50;37.70;;;;;;10192741;28;20020;-60
2022/07/13 13:24:31;;;;;;;1.90;0.60;;;35.70;37.50;;;;;;10203320;28;20080;-62
2022/07/13 13:34:31;;;;;;;0.93;0.60;;;35.40;36.90;;;;;;10204471;28;20556;-62
2022/07/13 13:39:21;;;;;;;0.75;0.70;;;35.40;36.40;;;;;;10205542;28;20030;-63
2022/07/13 13:44:13;;;;;;;0.70;0.70;;;35.50;36.00;;;;;;10187904;28;20113;-65
2022/07/13 13:49:05;;;;;;;2.45;0.75;;;35.90;35.60;;;;;;10173679;28;20016;-64
2022/07/13 13:53:56;;;;;;;1.25;0.70;;;35.50;35.10;;;;;;10175939;28;20040;-66
2022/07/13 13:58:48;;;;;;;1.20;0.57;;;35.20;34.80;;;;;;10174101;28;20023;-62
2022/07/13 14:03:38;;;;;;;0.60;0.40;;;34.80;34.70;;;;;;10175464;28;20043;-62
2022/07/13 14:08:29;;;;;;;2.28;0.63;;;35.20;34.30;;;;;;10175803;28;20046;-65
2022/07/13 14:13:19;;;;;;;0.75;0.47;;;35.40;33.90;;;;;;10174895;28;20042;-62
2022/07/13 14:18:11;;;;;;;1.40;0.70;;;35.30;33.70;;;;;;10175276;28;20260;-63
2022/07/13 14:23:01;;;;;;;1.15;0.60;;;35.50;33.30;;;;;;10174094;28;20024;-62
2022/07/13 14:27:53;;;;;;;0.75;0.50;;;35.20;33.40;;;;;;10170598;28;20498;-63
2022/07/13 14:32:43;;;;;;;0.50;0.50;;;34.70;33.20;;;;;;10176853;28;20036;-62
2022/07/13 14:37:35;;;;;;;0.63;0.50;;;34.80;33.10;;;;;;10175902;28;20023;-62
2022/07/13 14:42:26;;;;;;;0.70;0.57;;;35.70;32.50;;;;;;10171436;28;20242;-65
2022/07/13 14:47:16;;;;;;;1.08;0.52;;;36.30;32.10;;;;;;10173837;28;20203;-63
2022/07/13 14:52:07;;;;;;;3.53;0.77;;;36.50;32.00;;;;;;10178832;28;20089;-62
2022/07/13 14:56:58;;;;;;;2.50;0.90;;;36.70;31.90;;;;;;10164165;28;20075;-61
2022/07/13 15:01:48;;;;;;;2.28;0.90;;;36.80;31.70;;;;;;10140290;28;20086;-62
2022/07/13 15:06:43;;;;;;;2.23;0.73;;;37.70;31.40;;;;;;10169279;28;20621;-63
2022/07/13 15:11:34;;;;;;;3.30;1.92;;;38.60;31.10;;;;;;10169925;28;20044;-62
2022/07/13 15:16:24;;;;;;;0.95;0.75;;;38.70;31.00;;;;;;10167093;28;20020;-63
2022/07/13 15:21:15;;;;;;;1.53;1.03;;;38.40;31.20;;;;;;10169976;28;20041;-58
2022/07/13 15:26:06;;;;;;;1.23;0.70;;;37.60;31.40;;;;;;10163520;28;20036;-60
2022/07/13 15:30:56;;;;;;;2.38;1.77;;;36.90;31.40;;;;;;10173942;28;20048;-59
2022/07/13 15:35:47;;;;;;;3.17;1.10;;;36.30;31.50;;;;;;10173930;28;20491;-63
2022/07/13 15:45:47;;;;;;;1.40;1.20;;;35.60;31.70;;;;;;10174876;28;20559;-59
2022/07/13 15:50:37;;;;;;;3.67;1.30;;;35.20;32.40;;;;;;10170848;28;20031;-60
2022/07/13 15:55:28;;;;;;;1.58;0.85;;;34.90;33.00;;;;;;10164425;28;20032;-59
2022/07/13 16:00:21;;;;;;;3.03;2.00;;;34.90;33.60;;;;;;10172820;28;20047;-57
2022/07/13 16:05:11;;;;;;;1.30;0.90;;;34.40;34.00;;;;;;10171538;28;20024;-63
2022/07/13 16:10:02;;;;;;;1.55;0.63;;;34.40;34.40;;;;;;10170199;28;20436;-60
2022/07/13 16:14:53;;;;;;;1.17;0.85;;;34.20;34.70;;;;;;10168326;28;20150;-60
2022/07/13 16:19:44;;;;;;;0.80;0.70;;;34.10;34.90;;;;;;10170731;28;20468;-62
2022/07/13 16:24:35;;;;;;;0.88;0.50;;;33.70;35.20;;;;;;10168657;28;20144;-62
2022/07/13 16:29:26;;;;;;;0.50;0.45;;;33.20;35.70;;;;;;10172143;28;20031;-61
2022/07/13 16:34:16;;;;;;;2.63;0.60;;;33.10;35.90;;;;;;10167422;28;20070;-61
2022/07/13 16:39:07;;;;;;;1.42;0.70;;;33.00;36.00;;;;;;10173682;28;20043;-59
2022/07/13 16:43:57;;;;;;;1.67;0.70;;;32.70;36.20;;;;;;10166738;28;20035;-61
2022/07/13 16:48:48;;;;;;;3.78;1.02;;;32.60;36.30;;;;;;10172061;28;20024;-60
2022/07/13 16:53:39;;;;;;;2.50;0.70;;;32.60;36.50;;;;;;10173509;28;20510;-59
2022/07/13 16:58:29;;;;;;;2.67;1.60;;;32.20;36.70;;;;;;10173183;28;20397;-60
2022/07/13 17:03:20;;;;;;;2.75;1.10;;;32.10;36.90;;;;;;10173357;28;20111;-59
2022/07/13 17:08:10;;;;;;;6.63;4.25;;;32.00;37.10;;;;;;10173069;28;20034;-61
2022/07/13 17:13:04;;;;;;;4.45;3.03;;;32.00;37.30;;;;;;10172451;28;20039;-62
2022/07/13 17:17:55;;;;;;;;;;;31.90;37.50;;;;;;10170995;28;20060;-60
2022/07/13 17:22:46;;;;;;;3.42;1.20;;;31.70;37.70;;;;;;10180121;28;19955;-60
2022/07/13 17:27:36;;;;;;;4.38;1.73;;;31.70;37.70;;;;;;10175854;28;20032;-60
2022/07/13 17:32:27;;;;;;;3.22;1.92;;;31.70;37.90;;;;;;10172486;28;20075;-61
2022/07/13 17:37:18;;;;;;;4.07;1.85;;;31.60;38.10;;;;;;10179726;28;20083;-62
2022/07/13 17:42:08;;;;;;;3.55;2.05;;;31.70;38.30;;;;;;10159273;28;20095;-61
2022/07/13 17:46:59;;;;;;;3.28;1.60;;;31.60;38.40;;;;;;10153765;28;20025;-62
2022/07/13 17:51:50;;;;;;;2.88;1.33;;;31.60;38.60;;;;;;10153755;28;20044;-59
2022/07/13 17:56:41;;;;;;;12.00;7.13;;;31.60;38.80;;;;;;10180616;28;20111;-65
2022/07/13 18:01:32;;;;;;;7.00;3.88;;;31.50;38.90;;;;;;10176931;28;20375;-63
2022/07/13 18:06:22;;;;;;;4.60;2.80;;;31.50;39.10;;;;;;10165694;28;20028;-64
2022/07/13 18:11:13;;;;;;;17.33;7.68;;;31.50;39.20;;;;;;10150731;28;20028;-59
2022/07/13 18:16:04;;;;;;;13.10;7.63;;;31.40;39.20;;;;;;10169844;28;20051;-66
2022/07/13 18:20:55;;;;;;;11.45;6.40;;;31.30;39.20;;;;;;10179484;28;20027;-58
2022/07/13 18:25:45;;;;;;;7.88;5.82;;;31.30;39.20;;;;;;10174842;28;20038;-62
2022/07/13 18:30:36;;;;;;;10.05;4.40;;;31.10;39.40;;;;;;10174611;28;20393;-58
2022/07/13 18:35:27;;;;;;;9.95;4.32;;;31.10;39.60;;;;;;10176587;28;20094;-57
2022/07/13 18:40:19;;;;;;;6.40;3.28;;;31.10;39.80;;;;;;10171161;28;20052;-58
2022/07/13 18:45:10;;;;;;;8.20;2.92;;;31.10;39.90;;;;;;10169701;28;20042;-59
2022/07/13 18:50:01;;;;;;;7.05;3.15;;;31.00;40.00;;;;;;10187530;28;20032;-59
2022/07/13 18:54:51;;;;;;;4.97;2.67;;;31.00;40.20;;;;;;10168524;28;20411;-61
2022/07/13 18:59:42;;;;;;;5.07;2.10;;;30.90;40.30;;;;;;10176248;28;20024;-58
2022/07/13 19:04:33;;;;;;;2.88;2.58;;;30.80;40.50;;;;;;10167284;28;20032;-58
2022/07/13 19:09:25;;;;;;;5.40;2.63;;;30.80;40.70;;;;;;10152935;28;20038;-59
2022/07/13 19:14:16;;;;;;;7.63;4.55;;;30.80;40.70;;;;;;10164109;28;20036;-58
2022/07/13 19:19:07;;;;;;;9.73;5.13;;;30.70;40.90;;;;;;10172290;28;20024;-60
2022/07/13 19:24:01;;;;;;;8.45;4.85;;;30.70;41.20;;;;;;10165937;28;20035;-59
2022/07/13 19:28:52;;;;;;;3.45;2.50;;;30.60;41.30;;;;;;10171116;28;21285;-58
2022/07/13 19:33:42;;;;;;;4.35;3.10;;;30.50;41.50;;;;;;10175457;28;20058;-60
2022/07/13 19:38:33;;;;;;;5.40;3.13;;;30.50;41.70;;;;;;10166302;28;20024;-61
2022/07/13 19:43:23;;;;;;;4.40;2.25;;;30.40;41.90;;;;;;10172445;28;20035;-59
2022/07/13 19:48:14;;;;;;;6.32;3.90;;;30.30;41.90;;;;;;10175368;28;20031;-64
2022/07/13 19:53:05;;;;;;;5.68;2.80;;;30.30;42.00;;;;;;10175645;28;20478;-61
2022/07/13 19:57:57;;;;;;;4.18;2.15;;;30.20;42.10;;;;;;10174310;28;20038;-61
2022/07/13 20:02:48;;;;;;;5.90;3.20;;;30.10;42.20;;;;;;10174735;28;20031;-62
2022/07/13 20:07:39;;;;;;;7.72;4.18;;;30.00;42.30;;;;;;10171796;28;20429;-61
2022/07/13 20:12:30;;;;;;;7.78;4.15;;;29.90;42.50;;;;;;10181896;28;20040;-60
2022/07/13 20:17:20;;;;;;;7.47;3.63;;;29.90;42.70;;;;;;10188977;28;20104;-61
2022/07/13 20:22:12;;;;;;;6.47;3.15;;;29.90;42.90;;;;;;10174036;28;20092;-61
2022/07/13 20:27:02;;;;;;;5.45;3.88;;;29.80;42.90;;;;;;10171027;28;20537;-61
2022/07/13 20:31:53;;;;;;;5.90;3.10;;;29.70;43.80;;;;;;10172561;28;20115;-54
2022/07/13 20:36:54;;;;;;;6.07;2.78;;;29.60;43.30;;;;;;10167863;28;20028;-62
2022/07/13 20:41:45;;;;;;;4.03;2.80;;;29.50;43.60;;;;;;10175985;28;20032;-61
2022/07/13 20:46:35;;;;;;;5.13;2.60;;;29.40;43.60;;;;;;10161975;28;20032;-61
2022/07/13 20:51:26;;;;;;;8.10;4.45;;;29.40;43.70;;;;;;10165801;28;20054;-59
2022/07/13 20:56:17;;;;;;;6.07;3.20;;;29.40;43.90;;;;;;10178355;28;20093;-62
2022/07/13 21:01:08;;;;;;;5.40;2.97;;;29.30;44.10;;;;;;10175898;28;20028;-61
2022/07/13 21:05:59;;;;;;;7.40;2.95;;;29.20;44.20;;;;;;10179723;28;20421;-62
2022/07/13 21:10:52;;;;;;;6.45;2.70;;;29.20;44.40;;;;;;10180027;28;20032;-60
2022/07/13 21:15:43;;;;;;;5.00;3.28;;;29.20;44.70;;;;;;10178367;28;20058;-59
2022/07/13 21:20:34;;;;;;;5.53;2.90;;;29.20;45.00;;;;;;10178725;28;20027;-60
2022/07/13 21:30:33;;;;;;;4.75;3.08;;;29.00;45.70;;;;;;10178171;28;20408;-60
2022/07/13 21:35:24;;;;;;;5.63;3.15;;;28.80;46.10;;;;;;10179471;28;20084;-61
2022/07/13 21:40:15;;;;;;;7.60;2.60;;;28.70;46.70;;;;;;10173671;28;20311;-61
2022/07/13 21:45:06;;;;;;;6.28;4.05;;;28.50;47.20;;;;;;10170384;28;20194;-61
2022/07/13 21:49:57;;;;;;;4.95;3.63;;;28.40;47.50;;;;;;10190013;28;20027;-58
2022/07/13 21:54:48;;;;;;;5.30;3.70;;;28.40;48.00;;;;;;10173216;28;20438;-60
2022/07/13 21:59:39;;;;;;;8.77;4.82;;;28.20;48.40;;;;;;10178535;28;20031;-61
2022/07/13 22:04:31;;;;;;;6.45;4.15;;;28.20;48.80;;;;;;10176570;28;20027;-61
2022/07/13 22:09:22;;;;;;;8.85;4.32;;;28.10;49.00;;;;;;10178352;28;20095;-59
2022/07/13 22:14:50;;;;;;;10.25;4.65;;;28.10;49.20;;;;;;10173555;28;20111;-59
2022/07/13 22:20:18;;;;;;;4.57;4.13;;;28.10;49.60;;;;;;10177584;28;20036;-59
2022/07/13 22:25:46;;;;;;;5.20;4.03;;;28.10;49.80;;;;;;10170318;28;20228;-59
2022/07/13 22:31:14;;;;;;;6.72;5.15;;;27.90;50.00;;;;;;10171802;28;20024;-59
2022/07/13 22:36:43;;;;;;;5.18;3.65;;;27.80;50.20;;;;;;10176624;28;20072;-59
2022/07/13 22:42:11;;;;;;;8.10;3.97;;;27.70;50.40;;;;;;10176602;28;20016;-58
2022/07/13 22:47:39;;;;;;;4.32;3.40;;;27.60;50.50;;;;;;10168880;28;20065;-59
2022/07/13 22:53:07;;;;;;;4.93;4.10;;;27.60;50.50;;;;;;10174787;28;20032;-58
2022/07/13 22:58:35;;;;;;;5.15;3.70;;;27.60;50.70;;;;;;10166440;28;20035;-59
2022/07/13 23:04:03;;;;;;;7.35;4.13;;;27.60;50.70;;;;;;10175633;28;20077;-59
2022/07/13 23:09:31;;;;;;;6.15;4.35;;;27.60;51.00;;;;;;10167580;28;20424;-59
2022/07/13 23:14:59;;;;;;;8.45;4.80;;;27.60;51.20;;;;;;10175850;28;20510;-58
2022/07/13 23:20:28;;;;;;;5.85;4.60;;;27.50;51.50;;;;;;10173597;28;20028;-60
2022/07/13 23:25:56;;;;;;;6.82;4.75;;;27.40;51.80;;;;;;10169995;28;20509;-59
2022/07/13 23:30:57;;;;;;;7.50;4.05;;;27.30;52.10;;;;;;10176020;28;20035;-61
2022/07/13 23:35:49;;;;;;;6.93;3.58;;;27.30;52.30;;;;;;10171426;28;20126;-60
2022/07/13 23:40:39;;;;;;;4.32;3.50;;;27.10;52.50;;;;;;10168711;28;20107;-59
2022/07/13 23:45:30;;;;;;;9.93;3.58;;;27.00;52.90;;;;;;10174486;28;20496;-59
2022/07/13 23:50:21;;;;;;;7.38;3.55;;;26.90;53.30;;;;;;10164324;28;20040;-59
2022/07/13 23:55:11;;;;;;;5.05;3.20;;;26.80;53.50;;;;;;10168541;28;20040;-58
